sensor_id;sensor_type;location;lat;lon;timestamp;temperature;humidity
65239;SHT30;51827;51.186;6.926;2023-05-14T00:00:58;22.01;58.09
65239;SHT30;51827;51.186;6.926;2023-05-14T00:01:58;21.97;58.07
65239;SHT30;51827;51.186;6.926;2023-05-14T00:02:59;21.98;58.07
65239;SHT30;51827;51.186;6.926;2023-05-14T00:03:59;22.00;58.07
65239;SHT30;51827;51.186;6.926;2023-05-14T00:04:59;21.98;58.10
65239;SHT30;51827;51.186;6.926;2023-05-14T00:05:59;21.97;58.09
65239;SHT30;51827;51.186;6.926;2023-05-14T00:06:59;21.98;58.06
65239;SHT30;51827;51.186;6.926;2023-05-14T00:07:59;21.97;58.07
65239;SHT30;51827;51.186;6.926;2023-05-14T00:09:00;21.96;58.07
65239;SHT30;51827;51.186;6.926;2023-05-14T00:10:00;21.96;58.04
65239;SHT30;51827;51.186;6.926;2023-05-14T00:11:00;21.96;58.05
65239;SHT30;51827;51.186;6.926;2023-05-14T00:12:00;21.96;58.03
65239;SHT30;51827;51.186;6.926;2023-05-14T00:13:01;21.96;58.00
65239;SHT30;51827;51.186;6.926;2023-05-14T00:14:01;21.97;58.01
65239;SHT30;51827;51.186;6.926;2023-05-14T00:15:01;21.97;57.97
65239;SHT30;51827;51.186;6.926;2023-05-14T00:16:01;21.96;57.93
65239;SHT30;51827;51.186;6.926;2023-05-14T00:17:02;21.96;57.95
65239;SHT30;51827;51.186;6.926;2023-05-14T00:18:02;21.96;57.92
65239;SHT30;51827;51.186;6.926;2023-05-14T00:19:02;21.96;57.93
65239;SHT30;51827;51.186;6.926;2023-05-14T00:20:03;21.94;57.97
65239;SHT30;51827;51.186;6.926;2023-05-14T00:21:03;21.94;57.96
65239;SHT30;51827;51.186;6.926;2023-05-14T00:22:03;21.94;57.96
65239;SHT30;51827;51.186;6.926;2023-05-14T00:23:03;21.96;57.89
65239;SHT30;51827;51.186;6.926;2023-05-14T00:24:03;21.94;57.91
65239;SHT30;51827;51.186;6.926;2023-05-14T00:25:04;21.94;57.92
65239;SHT30;51827;51.186;6.926;2023-05-14T00:26:05;21.96;57.88
65239;SHT30;51827;51.186;6.926;2023-05-14T00:27:05;21.91;57.91
65239;SHT30;51827;51.186;6.926;2023-05-14T00:28:05;21.93;57.91
65239;SHT30;51827;51.186;6.926;2023-05-14T00:29:05;21.94;57.90
65239;SHT30;51827;51.186;6.926;2023-05-14T00:30:06;21.93;57.92
65239;SHT30;51827;51.186;6.926;2023-05-14T00:31:06;21.93;57.86
65239;SHT30;51827;51.186;6.926;2023-05-14T00:32:06;21.94;57.87
65239;SHT30;51827;51.186;6.926;2023-05-14T00:33:07;21.93;57.80
65239;SHT30;51827;51.186;6.926;2023-05-14T00:34:07;21.94;57.82
65239;SHT30;51827;51.186;6.926;2023-05-14T00:35:07;21.93;57.80
65239;SHT30;51827;51.186;6.926;2023-05-14T00:36:07;21.90;57.81
65239;SHT30;51827;51.186;6.926;2023-05-14T00:37:07;21.93;57.79
65239;SHT30;51827;51.186;6.926;2023-05-14T00:38:08;21.93;57.79
65239;SHT30;51827;51.186;6.926;2023-05-14T00:39:08;21.91;57.84
65239;SHT30;51827;51.186;6.926;2023-05-14T00:40:08;21.94;57.82
65239;SHT30;51827;51.186;6.926;2023-05-14T00:41:09;21.93;57.80
65239;SHT30;51827;51.186;6.926;2023-05-14T00:42:09;21.93;57.79
65239;SHT30;51827;51.186;6.926;2023-05-14T00:43:09;21.91;57.77
65239;SHT30;51827;51.186;6.926;2023-05-14T00:44:09;21.91;57.74
65239;SHT30;51827;51.186;6.926;2023-05-14T00:45:09;21.91;57.74
65239;SHT30;51827;51.186;6.926;2023-05-14T00:46:10;21.93;57.77
65239;SHT30;51827;51.186;6.926;2023-05-14T00:47:10;21.91;57.77
65239;SHT30;51827;51.186;6.926;2023-05-14T00:48:10;21.91;57.78
65239;SHT30;51827;51.186;6.926;2023-05-14T00:49:10;21.91;57.73
65239;SHT30;51827;51.186;6.926;2023-05-14T00:50:11;21.94;57.70
65239;SHT30;51827;51.186;6.926;2023-05-14T00:51:12;21.91;57.70
65239;SHT30;51827;51.186;6.926;2023-05-14T00:52:12;21.91;57.67
65239;SHT30;51827;51.186;6.926;2023-05-14T00:53:13;21.91;57.68
65239;SHT30;51827;51.186;6.926;2023-05-14T00:54:14;21.93;57.65
65239;SHT30;51827;51.186;6.926;2023-05-14T00:55:15;21.90;57.62
65239;SHT30;51827;51.186;6.926;2023-05-14T00:56:15;21.91;57.61
65239;SHT30;51827;51.186;6.926;2023-05-14T00:57:16;21.90;57.67
65239;SHT30;51827;51.186;6.926;2023-05-14T00:58:17;21.90;57.65
65239;SHT30;51827;51.186;6.926;2023-05-14T00:59:17;21.89;57.61
65239;SHT30;51827;51.186;6.926;2023-05-14T01:00:17;21.89;57.60
65239;SHT30;51827;51.186;6.926;2023-05-14T01:01:17;21.89;57.58
65239;SHT30;51827;51.186;6.926;2023-05-14T01:02:18;21.90;57.55
65239;SHT30;51827;51.186;6.926;2023-05-14T01:03:18;21.89;57.54
65239;SHT30;51827;51.186;6.926;2023-05-14T01:04:18;21.87;57.51
65239;SHT30;51827;51.186;6.926;2023-05-14T01:05:18;21.89;57.53
65239;SHT30;51827;51.186;6.926;2023-05-14T01:06:27;21.89;57.55
65239;SHT30;51827;51.186;6.926;2023-05-14T01:09:00;21.89;57.51
65239;SHT30;51827;51.186;6.926;2023-05-14T01:10:07;21.86;57.52
65239;SHT30;51827;51.186;6.926;2023-05-14T01:13:31;21.84;57.45
65239;SHT30;51827;51.186;6.926;2023-05-14T01:15:33;21.87;57.47
65239;SHT30;51827;51.186;6.926;2023-05-14T01:16:34;21.86;57.46
65239;SHT30;51827;51.186;6.926;2023-05-14T01:17:46;21.86;57.46
65239;SHT30;51827;51.186;6.926;2023-05-14T01:18:47;21.83;57.50
65239;SHT30;51827;51.186;6.926;2023-05-14T01:19:49;21.84;57.43
65239;SHT30;51827;51.186;6.926;2023-05-14T01:20:50;21.84;57.47
65239;SHT30;51827;51.186;6.926;2023-05-14T01:21:50;21.86;57.41
65239;SHT30;51827;51.186;6.926;2023-05-14T01:22:50;21.87;57.40
65239;SHT30;51827;51.186;6.926;2023-05-14T01:23:50;21.86;57.41
65239;SHT30;51827;51.186;6.926;2023-05-14T01:24:50;21.87;57.44
65239;SHT30;51827;51.186;6.926;2023-05-14T01:25:50;21.86;57.44
65239;SHT30;51827;51.186;6.926;2023-05-14T01:26:51;21.84;57.41
65239;SHT30;51827;51.186;6.926;2023-05-14T01:27:55;21.84;57.38
65239;SHT30;51827;51.186;6.926;2023-05-14T01:29:10;21.86;57.33
65239;SHT30;51827;51.186;6.926;2023-05-14T01:31:15;21.83;57.32
65239;SHT30;51827;51.186;6.926;2023-05-14T01:32:17;21.83;57.36
65239;SHT30;51827;51.186;6.926;2023-05-14T01:33:17;21.84;57.34
65239;SHT30;51827;51.186;6.926;2023-05-14T01:34:18;21.83;57.31
65239;SHT30;51827;51.186;6.926;2023-05-14T01:35:21;21.83;57.30
65239;SHT30;51827;51.186;6.926;2023-05-14T01:36:24;21.81;57.28
65239;SHT30;51827;51.186;6.926;2023-05-14T01:37:24;21.86;57.26
65239;SHT30;51827;51.186;6.926;2023-05-14T01:38:26;21.84;57.26
65239;SHT30;51827;51.186;6.926;2023-05-14T01:39:27;21.84;57.28
65239;SHT30;51827;51.186;6.926;2023-05-14T01:40:27;21.83;57.27
65239;SHT30;51827;51.186;6.926;2023-05-14T01:41:28;21.84;57.27
65239;SHT30;51827;51.186;6.926;2023-05-14T01:42:29;21.84;57.24
65239;SHT30;51827;51.186;6.926;2023-05-14T01:43:30;21.84;57.31
65239;SHT30;51827;51.186;6.926;2023-05-14T01:44:30;21.83;57.26
65239;SHT30;51827;51.186;6.926;2023-05-14T01:45:33;21.83;57.23
65239;SHT30;51827;51.186;6.926;2023-05-14T01:46:33;21.83;57.25
65239;SHT30;51827;51.186;6.926;2023-05-14T01:47:33;21.83;57.22
65239;SHT30;51827;51.186;6.926;2023-05-14T01:48:33;21.83;57.23
65239;SHT30;51827;51.186;6.926;2023-05-14T01:49:34;21.80;57.22
65239;SHT30;51827;51.186;6.926;2023-05-14T01:50:34;21.80;57.17
65239;SHT30;51827;51.186;6.926;2023-05-14T01:51:34;21.80;57.19
65239;SHT30;51827;51.186;6.926;2023-05-14T01:52:34;21.81;57.20
65239;SHT30;51827;51.186;6.926;2023-05-14T01:53:34;21.78;57.23
65239;SHT30;51827;51.186;6.926;2023-05-14T01:54:34;21.80;57.18
65239;SHT30;51827;51.186;6.926;2023-05-14T01:55:35;21.78;57.22
65239;SHT30;51827;51.186;6.926;2023-05-14T01:56:35;21.77;57.18
65239;SHT30;51827;51.186;6.926;2023-05-14T01:57:35;21.78;57.20
65239;SHT30;51827;51.186;6.926;2023-05-14T01:58:35;21.78;57.20
65239;SHT30;51827;51.186;6.926;2023-05-14T01:59:35;21.78;57.15
65239;SHT30;51827;51.186;6.926;2023-05-14T02:00:35;21.81;57.11
65239;SHT30;51827;51.186;6.926;2023-05-14T02:01:35;21.78;57.14
65239;SHT30;51827;51.186;6.926;2023-05-14T02:02:36;21.81;57.13
65239;SHT30;51827;51.186;6.926;2023-05-14T02:03:36;21.78;57.11
65239;SHT30;51827;51.186;6.926;2023-05-14T02:04:36;21.80;57.10
65239;SHT30;51827;51.186;6.926;2023-05-14T02:05:36;21.78;57.09
65239;SHT30;51827;51.186;6.926;2023-05-14T02:06:36;21.77;57.09
65239;SHT30;51827;51.186;6.926;2023-05-14T02:07:36;21.80;57.05
65239;SHT30;51827;51.186;6.926;2023-05-14T02:08:37;21.77;57.07
65239;SHT30;51827;51.186;6.926;2023-05-14T02:09:37;21.77;57.09
65239;SHT30;51827;51.186;6.926;2023-05-14T02:10:37;21.78;57.09
65239;SHT30;51827;51.186;6.926;2023-05-14T02:11:37;21.76;57.09
65239;SHT30;51827;51.186;6.926;2023-05-14T02:12:37;21.78;57.04
65239;SHT30;51827;51.186;6.926;2023-05-14T02:13:37;21.77;57.04
65239;SHT30;51827;51.186;6.926;2023-05-14T02:14:37;21.77;57.02
65239;SHT30;51827;51.186;6.926;2023-05-14T02:15:38;21.77;57.03
65239;SHT30;51827;51.186;6.926;2023-05-14T02:16:38;21.74;57.01
65239;SHT30;51827;51.186;6.926;2023-05-14T02:17:38;21.77;57.04
65239;SHT30;51827;51.186;6.926;2023-05-14T02:18:38;21.76;57.00
65239;SHT30;51827;51.186;6.926;2023-05-14T02:19:38;21.77;56.97
65239;SHT30;51827;51.186;6.926;2023-05-14T02:20:38;21.76;56.98
65239;SHT30;51827;51.186;6.926;2023-05-14T02:21:39;21.76;56.97
65239;SHT30;51827;51.186;6.926;2023-05-14T02:22:39;21.74;57.01
65239;SHT30;51827;51.186;6.926;2023-05-14T02:23:39;21.76;56.97
65239;SHT30;51827;51.186;6.926;2023-05-14T02:24:39;21.78;56.96
65239;SHT30;51827;51.186;6.926;2023-05-14T02:25:39;21.76;56.92
65239;SHT30;51827;51.186;6.926;2023-05-14T02:26:39;21.76;56.99
65239;SHT30;51827;51.186;6.926;2023-05-14T02:27:39;21.76;56.91
65239;SHT30;51827;51.186;6.926;2023-05-14T02:28:40;21.76;56.95
65239;SHT30;51827;51.186;6.926;2023-05-14T02:29:40;21.74;56.94
65239;SHT30;51827;51.186;6.926;2023-05-14T02:30:40;21.73;56.93
65239;SHT30;51827;51.186;6.926;2023-05-14T02:31:40;21.73;56.91
65239;SHT30;51827;51.186;6.926;2023-05-14T02:32:40;21.76;56.89
65239;SHT30;51827;51.186;6.926;2023-05-14T02:33:40;21.73;56.91
65239;SHT30;51827;51.186;6.926;2023-05-14T02:34:41;21.71;56.87
65239;SHT30;51827;51.186;6.926;2023-05-14T02:35:41;21.74;56.87
65239;SHT30;51827;51.186;6.926;2023-05-14T02:36:41;21.74;56.89
65239;SHT30;51827;51.186;6.926;2023-05-14T02:37:41;21.74;56.89
65239;SHT30;51827;51.186;6.926;2023-05-14T02:38:41;21.73;56.86
65239;SHT30;51827;51.186;6.926;2023-05-14T02:39:41;21.71;56.86
65239;SHT30;51827;51.186;6.926;2023-05-14T02:40:43;21.73;56.82
65239;SHT30;51827;51.186;6.926;2023-05-14T02:41:43;21.71;56.83
65239;SHT30;51827;51.186;6.926;2023-05-14T02:42:44;21.74;56.88
65239;SHT30;51827;51.186;6.926;2023-05-14T02:43:44;21.71;56.83
65239;SHT30;51827;51.186;6.926;2023-05-14T02:44:44;21.73;56.80
65239;SHT30;51827;51.186;6.926;2023-05-14T02:45:44;21.71;56.80
65239;SHT30;51827;51.186;6.926;2023-05-14T02:46:44;21.70;56.79
65239;SHT30;51827;51.186;6.926;2023-05-14T02:47:44;21.71;56.82
65239;SHT30;51827;51.186;6.926;2023-05-14T02:48:45;21.74;56.84
65239;SHT30;51827;51.186;6.926;2023-05-14T02:49:45;21.73;56.85
65239;SHT30;51827;51.186;6.926;2023-05-14T02:50:45;21.71;57.03
65239;SHT30;51827;51.186;6.926;2023-05-14T02:51:45;21.70;57.07
65239;SHT30;51827;51.186;6.926;2023-05-14T02:52:45;21.70;57.17
65239;SHT30;51827;51.186;6.926;2023-05-14T02:53:45;21.71;57.16
65239;SHT30;51827;51.186;6.926;2023-05-14T02:54:45;21.71;57.17
65239;SHT30;51827;51.186;6.926;2023-05-14T02:55:46;21.70;57.17
65239;SHT30;51827;51.186;6.926;2023-05-14T02:56:46;21.70;57.15
65239;SHT30;51827;51.186;6.926;2023-05-14T02:57:46;21.70;57.15
65239;SHT30;51827;51.186;6.926;2023-05-14T02:58:46;21.70;57.11
65239;SHT30;51827;51.186;6.926;2023-05-14T02:59:46;21.70;57.11
65239;SHT30;51827;51.186;6.926;2023-05-14T03:00:46;21.73;57.06
65239;SHT30;51827;51.186;6.926;2023-05-14T03:01:47;21.69;57.12
65239;SHT30;51827;51.186;6.926;2023-05-14T03:02:47;21.70;57.08
65239;SHT30;51827;51.186;6.926;2023-05-14T03:03:47;21.67;57.06
65239;SHT30;51827;51.186;6.926;2023-05-14T03:04:47;21.69;57.05
65239;SHT30;51827;51.186;6.926;2023-05-14T03:05:47;21.70;57.00
65239;SHT30;51827;51.186;6.926;2023-05-14T03:06:48;21.70;57.05
65239;SHT30;51827;51.186;6.926;2023-05-14T03:07:49;21.69;57.00
65239;SHT30;51827;51.186;6.926;2023-05-14T03:08:49;21.70;57.06
65239;SHT30;51827;51.186;6.926;2023-05-14T03:09:49;21.69;56.99
65239;SHT30;51827;51.186;6.926;2023-05-14T03:10:50;21.67;56.92
65239;SHT30;51827;51.186;6.926;2023-05-14T03:11:50;21.67;56.97
65239;SHT30;51827;51.186;6.926;2023-05-14T03:12:50;21.67;56.91
65239;SHT30;51827;51.186;6.926;2023-05-14T03:13:50;21.67;56.89
65239;SHT30;51827;51.186;6.926;2023-05-14T03:14:51;21.70;56.86
65239;SHT30;51827;51.186;6.926;2023-05-14T03:15:51;21.67;56.87
65239;SHT30;51827;51.186;6.926;2023-05-14T03:16:51;21.67;56.91
65239;SHT30;51827;51.186;6.926;2023-05-14T03:17:51;21.66;56.89
65239;SHT30;51827;51.186;6.926;2023-05-14T03:18:51;21.66;56.89
65239;SHT30;51827;51.186;6.926;2023-05-14T03:19:51;21.69;56.82
65239;SHT30;51827;51.186;6.926;2023-05-14T03:20:51;21.67;56.84
65239;SHT30;51827;51.186;6.926;2023-05-14T03:21:52;21.69;56.81
65239;SHT30;51827;51.186;6.926;2023-05-14T03:22:52;21.66;56.83
65239;SHT30;51827;51.186;6.926;2023-05-14T03:23:52;21.66;56.81
65239;SHT30;51827;51.186;6.926;2023-05-14T03:24:52;21.66;56.78
65239;SHT30;51827;51.186;6.926;2023-05-14T03:25:52;21.67;56.78
65239;SHT30;51827;51.186;6.926;2023-05-14T03:26:52;21.64;56.77
65239;SHT30;51827;51.186;6.926;2023-05-14T03:27:53;21.67;56.72
65239;SHT30;51827;51.186;6.926;2023-05-14T03:28:53;21.67;56.70
65239;SHT30;51827;51.186;6.926;2023-05-14T03:29:53;21.64;56.70
65239;SHT30;51827;51.186;6.926;2023-05-14T03:30:53;21.67;56.72
65239;SHT30;51827;51.186;6.926;2023-05-14T03:31:54;21.66;56.63
65239;SHT30;51827;51.186;6.926;2023-05-14T03:32:54;21.61;56.60
65239;SHT30;51827;51.186;6.926;2023-05-14T03:33:54;21.64;56.63
65239;SHT30;51827;51.186;6.926;2023-05-14T03:34:54;21.63;56.62
65239;SHT30;51827;51.186;6.926;2023-05-14T03:35:54;21.64;56.63
65239;SHT30;51827;51.186;6.926;2023-05-14T03:36:54;21.63;56.56
65239;SHT30;51827;51.186;6.926;2023-05-14T03:37:55;21.61;56.59
65239;SHT30;51827;51.186;6.926;2023-05-14T03:38:55;21.63;56.57
65239;SHT30;51827;51.186;6.926;2023-05-14T03:39:55;21.64;56.59
65239;SHT30;51827;51.186;6.926;2023-05-14T03:40:55;21.61;56.55
65239;SHT30;51827;51.186;6.926;2023-05-14T03:41:55;21.61;56.55
65239;SHT30;51827;51.186;6.926;2023-05-14T03:42:55;21.63;56.54
65239;SHT30;51827;51.186;6.926;2023-05-14T03:43:56;21.63;56.56
65239;SHT30;51827;51.186;6.926;2023-05-14T03:44:56;21.61;56.52
65239;SHT30;51827;51.186;6.926;2023-05-14T03:45:56;21.63;56.49
65239;SHT30;51827;51.186;6.926;2023-05-14T03:46:56;21.61;56.46
65239;SHT30;51827;51.186;6.926;2023-05-14T03:47:56;21.61;56.46
65239;SHT30;51827;51.186;6.926;2023-05-14T03:48:56;21.60;56.42
65239;SHT30;51827;51.186;6.926;2023-05-14T03:49:57;21.61;56.47
65239;SHT30;51827;51.186;6.926;2023-05-14T03:50:57;21.58;56.46
65239;SHT30;51827;51.186;6.926;2023-05-14T03:51:57;21.60;56.45
65239;SHT30;51827;51.186;6.926;2023-05-14T03:52:57;21.60;56.44
65239;SHT30;51827;51.186;6.926;2023-05-14T03:53:57;21.60;56.43
65239;SHT30;51827;51.186;6.926;2023-05-14T03:54:57;21.60;56.45
65239;SHT30;51827;51.186;6.926;2023-05-14T03:55:57;21.58;56.36
65239;SHT30;51827;51.186;6.926;2023-05-14T03:56:58;21.60;56.37
65239;SHT30;51827;51.186;6.926;2023-05-14T03:57:58;21.60;56.40
65239;SHT30;51827;51.186;6.926;2023-05-14T03:58:58;21.60;56.39
65239;SHT30;51827;51.186;6.926;2023-05-14T03:59:58;21.58;56.37
65239;SHT30;51827;51.186;6.926;2023-05-14T04:00:58;21.57;56.36
65239;SHT30;51827;51.186;6.926;2023-05-14T04:01:58;21.60;56.35
65239;SHT30;51827;51.186;6.926;2023-05-14T04:02:59;21.58;56.32
65239;SHT30;51827;51.186;6.926;2023-05-14T04:03:59;21.58;56.32
65239;SHT30;51827;51.186;6.926;2023-05-14T04:04:59;21.57;56.27
65239;SHT30;51827;51.186;6.926;2023-05-14T04:06:00;21.60;56.28
65239;SHT30;51827;51.186;6.926;2023-05-14T04:07:00;21.57;56.21
65239;SHT30;51827;51.186;6.926;2023-05-14T04:08:00;21.58;56.24
65239;SHT30;51827;51.186;6.926;2023-05-14T04:09:01;21.58;56.24
65239;SHT30;51827;51.186;6.926;2023-05-14T04:10:02;21.56;56.24
65239;SHT30;51827;51.186;6.926;2023-05-14T04:11:02;21.56;56.22
65239;SHT30;51827;51.186;6.926;2023-05-14T04:12:02;21.57;56.22
65239;SHT30;51827;51.186;6.926;2023-05-14T04:13:02;21.57;56.25
65239;SHT30;51827;51.186;6.926;2023-05-14T04:14:03;21.57;56.22
65239;SHT30;51827;51.186;6.926;2023-05-14T04:15:03;21.54;56.19
65239;SHT30;51827;51.186;6.926;2023-05-14T04:16:03;21.57;56.12
65239;SHT30;51827;51.186;6.926;2023-05-14T04:17:04;21.53;56.11
65239;SHT30;51827;51.186;6.926;2023-05-14T04:18:04;21.56;56.14
65239;SHT30;51827;51.186;6.926;2023-05-14T04:19:04;21.57;56.17
65239;SHT30;51827;51.186;6.926;2023-05-14T04:20:04;21.53;56.10
65239;SHT30;51827;51.186;6.926;2023-05-14T04:21:05;21.56;56.15
65239;SHT30;51827;51.186;6.926;2023-05-14T04:22:05;21.53;56.12
65239;SHT30;51827;51.186;6.926;2023-05-14T04:23:05;21.57;56.07
65239;SHT30;51827;51.186;6.926;2023-05-14T04:24:05;21.56;56.09
65239;SHT30;51827;51.186;6.926;2023-05-14T04:25:06;21.56;56.01
65239;SHT30;51827;51.186;6.926;2023-05-14T04:26:06;21.54;56.01
65239;SHT30;51827;51.186;6.926;2023-05-14T04:27:06;21.53;55.99
65239;SHT30;51827;51.186;6.926;2023-05-14T04:28:06;21.58;56.04
65239;SHT30;51827;51.186;6.926;2023-05-14T04:29:06;21.56;56.06
65239;SHT30;51827;51.186;6.926;2023-05-14T04:30:07;21.54;56.01
65239;SHT30;51827;51.186;6.926;2023-05-14T04:31:07;21.56;56.03
65239;SHT30;51827;51.186;6.926;2023-05-14T04:32:07;21.56;55.97
65239;SHT30;51827;51.186;6.926;2023-05-14T04:33:08;21.53;55.96
65239;SHT30;51827;51.186;6.926;2023-05-14T04:34:08;21.54;56.00
65239;SHT30;51827;51.186;6.926;2023-05-14T04:35:08;21.53;55.99
65239;SHT30;51827;51.186;6.926;2023-05-14T04:36:08;21.54;55.95
65239;SHT30;51827;51.186;6.926;2023-05-14T04:37:08;21.53;55.90
65239;SHT30;51827;51.186;6.926;2023-05-14T04:38:08;21.54;55.91
65239;SHT30;51827;51.186;6.926;2023-05-14T04:39:09;21.56;55.94
65239;SHT30;51827;51.186;6.926;2023-05-14T04:40:09;21.56;55.93
65239;SHT30;51827;51.186;6.926;2023-05-14T04:41:09;21.56;55.92
65239;SHT30;51827;51.186;6.926;2023-05-14T04:42:09;21.54;55.87
65239;SHT30;51827;51.186;6.926;2023-05-14T04:43:09;21.53;55.88
65239;SHT30;51827;51.186;6.926;2023-05-14T04:44:11;21.53;55.88
65239;SHT30;51827;51.186;6.926;2023-05-14T04:45:11;21.53;55.89
65239;SHT30;51827;51.186;6.926;2023-05-14T04:46:11;21.53;55.77
65239;SHT30;51827;51.186;6.926;2023-05-14T04:47:11;21.51;55.76
65239;SHT30;51827;51.186;6.926;2023-05-14T04:48:11;21.53;55.69
65239;SHT30;51827;51.186;6.926;2023-05-14T04:49:12;21.53;55.66
65239;SHT30;51827;51.186;6.926;2023-05-14T04:50:12;21.53;55.70
65239;SHT30;51827;51.186;6.926;2023-05-14T04:51:12;21.51;55.73
65239;SHT30;51827;51.186;6.926;2023-05-14T04:52:13;21.51;55.65
65239;SHT30;51827;51.186;6.926;2023-05-14T04:53:13;21.51;55.59
65239;SHT30;51827;51.186;6.926;2023-05-14T04:54:13;21.51;55.53
65239;SHT30;51827;51.186;6.926;2023-05-14T04:55:13;21.49;55.47
65239;SHT30;51827;51.186;6.926;2023-05-14T04:56:13;21.51;55.43
65239;SHT30;51827;51.186;6.926;2023-05-14T04:57:13;21.51;55.38
65239;SHT30;51827;51.186;6.926;2023-05-14T04:58:14;21.50;55.36
65239;SHT30;51827;51.186;6.926;2023-05-14T04:59:14;21.50;55.32
65239;SHT30;51827;51.186;6.926;2023-05-14T05:00:14;21.50;55.39
65239;SHT30;51827;51.186;6.926;2023-05-14T05:01:15;21.50;55.36
65239;SHT30;51827;51.186;6.926;2023-05-14T05:02:15;21.53;55.29
65239;SHT30;51827;51.186;6.926;2023-05-14T05:03:15;21.50;55.25
65239;SHT30;51827;51.186;6.926;2023-05-14T05:04:15;21.51;55.25
65239;SHT30;51827;51.186;6.926;2023-05-14T05:05:15;21.50;55.18
65239;SHT30;51827;51.186;6.926;2023-05-14T05:06:16;21.53;55.25
65239;SHT30;51827;51.186;6.926;2023-05-14T05:07:16;21.49;55.23
65239;SHT30;51827;51.186;6.926;2023-05-14T05:08:16;21.49;55.20
65239;SHT30;51827;51.186;6.926;2023-05-14T05:09:16;21.50;55.16
65239;SHT30;51827;51.186;6.926;2023-05-14T05:10:16;21.50;55.15
65239;SHT30;51827;51.186;6.926;2023-05-14T05:11:17;21.51;55.11
65239;SHT30;51827;51.186;6.926;2023-05-14T05:12:17;21.50;55.15
65239;SHT30;51827;51.186;6.926;2023-05-14T05:13:17;21.50;55.07
65239;SHT30;51827;51.186;6.926;2023-05-14T05:14:17;21.49;55.08
65239;SHT30;51827;51.186;6.926;2023-05-14T05:15:17;21.49;55.07
65239;SHT30;51827;51.186;6.926;2023-05-14T05:16:17;21.50;55.03
65239;SHT30;51827;51.186;6.926;2023-05-14T05:17:18;21.47;55.07
65239;SHT30;51827;51.186;6.926;2023-05-14T05:18:18;21.47;55.03
65239;SHT30;51827;51.186;6.926;2023-05-14T05:19:18;21.49;55.05
65239;SHT30;51827;51.186;6.926;2023-05-14T05:20:18;21.49;55.00
65239;SHT30;51827;51.186;6.926;2023-05-14T05:21:18;21.47;55.02
65239;SHT30;51827;51.186;6.926;2023-05-14T05:22:18;21.49;54.99
65239;SHT30;51827;51.186;6.926;2023-05-14T05:23:19;21.47;54.96
65239;SHT30;51827;51.186;6.926;2023-05-14T05:24:19;21.50;54.95
65239;SHT30;51827;51.186;6.926;2023-05-14T05:25:19;21.47;54.97
65239;SHT30;51827;51.186;6.926;2023-05-14T05:26:19;21.49;54.91
65239;SHT30;51827;51.186;6.926;2023-05-14T05:27:19;21.50;54.93
65239;SHT30;51827;51.186;6.926;2023-05-14T05:28:19;21.50;54.88
65239;SHT30;51827;51.186;6.926;2023-05-14T05:29:20;21.47;54.95
65239;SHT30;51827;51.186;6.926;2023-05-14T05:30:20;21.50;54.86
65239;SHT30;51827;51.186;6.926;2023-05-14T05:31:20;21.46;54.89
65239;SHT30;51827;51.186;6.926;2023-05-14T05:32:20;21.47;54.92
65239;SHT30;51827;51.186;6.926;2023-05-14T05:33:20;21.47;54.87
65239;SHT30;51827;51.186;6.926;2023-05-14T05:34:21;21.47;54.89
65239;SHT30;51827;51.186;6.926;2023-05-14T05:35:21;21.47;54.82
65239;SHT30;51827;51.186;6.926;2023-05-14T05:36:21;21.49;54.84
65239;SHT30;51827;51.186;6.926;2023-05-14T05:37:21;21.49;54.84
65239;SHT30;51827;51.186;6.926;2023-05-14T05:38:21;21.47;54.81
65239;SHT30;51827;51.186;6.926;2023-05-14T05:39:21;21.49;54.85
65239;SHT30;51827;51.186;6.926;2023-05-14T05:40:21;21.46;54.81
65239;SHT30;51827;51.186;6.926;2023-05-14T05:41:22;21.46;54.84
65239;SHT30;51827;51.186;6.926;2023-05-14T05:42:22;21.47;54.80
65239;SHT30;51827;51.186;6.926;2023-05-14T05:43:22;21.45;54.77
65239;SHT30;51827;51.186;6.926;2023-05-14T05:44:22;21.45;54.77
65239;SHT30;51827;51.186;6.926;2023-05-14T05:45:22;21.47;54.75
65239;SHT30;51827;51.186;6.926;2023-05-14T05:46:22;21.45;54.72
65239;SHT30;51827;51.186;6.926;2023-05-14T05:47:23;21.46;54.68
65239;SHT30;51827;51.186;6.926;2023-05-14T05:48:23;21.46;54.72
65239;SHT30;51827;51.186;6.926;2023-05-14T05:49:23;21.46;54.74
65239;SHT30;51827;51.186;6.926;2023-05-14T05:50:23;21.46;54.75
65239;SHT30;51827;51.186;6.926;2023-05-14T05:51:23;21.46;54.66
65239;SHT30;51827;51.186;6.926;2023-05-14T05:52:23;21.46;54.67
65239;SHT30;51827;51.186;6.926;2023-05-14T05:53:24;21.45;54.69
65239;SHT30;51827;51.186;6.926;2023-05-14T05:54:24;21.45;54.67
65239;SHT30;51827;51.186;6.926;2023-05-14T05:55:24;21.46;54.69
65239;SHT30;51827;51.186;6.926;2023-05-14T05:56:24;21.45;54.70
65239;SHT30;51827;51.186;6.926;2023-05-14T05:57:24;21.45;54.73
65239;SHT30;51827;51.186;6.926;2023-05-14T05:58:24;21.46;54.70
65239;SHT30;51827;51.186;6.926;2023-05-14T05:59:25;21.47;54.69
65239;SHT30;51827;51.186;6.926;2023-05-14T06:00:25;21.46;54.71
65239;SHT30;51827;51.186;6.926;2023-05-14T06:01:25;21.45;54.65
65239;SHT30;51827;51.186;6.926;2023-05-14T06:02:25;21.46;54.63
65239;SHT30;51827;51.186;6.926;2023-05-14T06:03:25;21.46;54.67
65239;SHT30;51827;51.186;6.926;2023-05-14T06:04:26;21.46;54.67
65239;SHT30;51827;51.186;6.926;2023-05-14T06:05:26;21.46;54.73
65239;SHT30;51827;51.186;6.926;2023-05-14T06:06:27;21.47;54.80
65239;SHT30;51827;51.186;6.926;2023-05-14T06:07:27;21.45;54.71
65239;SHT30;51827;51.186;6.926;2023-05-14T06:08:27;21.45;54.69
65239;SHT30;51827;51.186;6.926;2023-05-14T06:09:27;21.43;54.75
65239;SHT30;51827;51.186;6.926;2023-05-14T06:10:27;21.43;54.73
65239;SHT30;51827;51.186;6.926;2023-05-14T06:11:28;21.46;54.73
65239;SHT30;51827;51.186;6.926;2023-05-14T06:12:28;21.46;54.76
65239;SHT30;51827;51.186;6.926;2023-05-14T06:13:28;21.47;54.71
65239;SHT30;51827;51.186;6.926;2023-05-14T06:14:28;21.45;54.74
65239;SHT30;51827;51.186;6.926;2023-05-14T06:15:28;21.46;54.77
65239;SHT30;51827;51.186;6.926;2023-05-14T06:16:28;21.45;54.76
65239;SHT30;51827;51.186;6.926;2023-05-14T06:17:29;21.47;54.73
65239;SHT30;51827;51.186;6.926;2023-05-14T06:18:29;21.46;54.76
65239;SHT30;51827;51.186;6.926;2023-05-14T06:19:29;21.43;54.77
65239;SHT30;51827;51.186;6.926;2023-05-14T06:20:29;21.46;54.72
65239;SHT30;51827;51.186;6.926;2023-05-14T06:21:29;21.46;54.71
65239;SHT30;51827;51.186;6.926;2023-05-14T06:22:30;21.46;54.73
65239;SHT30;51827;51.186;6.926;2023-05-14T06:23:30;21.46;54.72
65239;SHT30;51827;51.186;6.926;2023-05-14T06:24:30;21.47;54.74
65239;SHT30;51827;51.186;6.926;2023-05-14T06:25:30;21.47;54.72
65239;SHT30;51827;51.186;6.926;2023-05-14T06:26:30;21.45;54.77
65239;SHT30;51827;51.186;6.926;2023-05-14T06:27:30;21.45;54.77